East Rochester, Ohio
Current Conditions -  °F | °C
As of 2:51 AM on Sunday 26 Oct 2014 (Local Time) from KCAK Reporting Station
Clear Clear  
Wind Chill: 46°   Ceiling: Unl
Heat Index: 49°   Visibility: 10mi
Dew Point: 31°   Wind: 7mph
Humidity: 50%   Direction: 280°W
Pressure: 29.82"   Gusts: NA
Location:  40.75°N, 81.03°W
Report Text: KCAK 260651Z 28006KT 10SM CLR 09/M01 A2982 RMK AO2 SLP095 T00941006
Loading
Personal Weather Stations






























Interactive Weather Map
Tropical Storm Tracking
New forecast layout! Learn more

10-Day Weather Forecast

Advertisements
Track Severe Weather on mobile